Fallon, NV

10:25 PM PST on February 27, 2015 (GMT -0800)
Derby | Change Station
CLOSE
Current Station
Airport
Location: Lovelock,
Elevation: 3904 ft
Nearby Weather Stations

Elev 3904 ft 40.07 °N, 118.57 °W | Updated 32 minutes ago

Overcast
Overcast
39 °F
Feels Like 34 °F
N
7
Wind Variable Wind from NNE

Today
High -- | Low -- °F
--% Chance of Precip.
Yesterday
High -- | Low -- °F
Precip. -- in
6:31 AM 5:45 PM
Waxing Gibbous, 75% visible
Pressure 29.64 in
Visibility 10.0 miles
Clouds Mostly Cloudy 2000 ft
Mostly Cloudy 10000 ft
Overcast 11000 ft
Windchill 34 °F
Dew Point 34 °F
Humidity 82%
Rainfall 0.02 in
Snow Depth Not available.
UV 0 out of 12
Pollen 5.40 out of 12
Air Quality Not available.
Flu Activity Not available.
METAR KLOL 280553Z AUTO 03006KT 10SM BKN020 BKN100 OVC110 04/01 A2964 RMK AO2 SLP035 60000 T00390011 10100 20033 53004

More Conditions Fewer Conditions

Pressure 29.64 in
Visibility 10.0 miles
Clouds Mostly Cloudy 2000 ft
Mostly Cloudy 10000 ft
Overcast 11000 ft
Windchill 34 °F
Dew Point 34 °F
Humidity 82%
Rainfall 0.02 in
Snow Depth Not available.
UV 0 out of 12
Pollen 5.40 out of 12
Air Quality Not available.
Flu Activity Not available.
METAR KLOL 280553Z AUTO 03006KT 10SM BKN020 BKN100 OVC110 04/01 A2964 RMK AO2 SLP035 60000 T00390011 10100 20033 53004

More Conditions Fewer Conditions

10-Day Weather Forecast

Almanac

Astronomy

Feb. 27, 2015 Rise Set
Actual Time
Civil Twilight
Nautical Twilight
Astronomical Twilight
Moon
Length of Visible Light
Length of Day
Tomorrow will be .
, % of the Moon is Illuminated

Today's Extremes

State Highs State Lows

Community

WunderPhotos

Upload Photos

1,800,976 photos uploaded!

WunderBlogs® & News

Nearby

Air Quality

  Air Quality AQ Index Pollutant
Not available.

Snow Depth

Station Depth Elevation

Earthquake Activity

City Distance Mag. Time & Date
Minimum magnitude displayed is 2.5.

Coastal Water Temperatures

Place Temperature

Nearby Weather Stations